Time;durP1;ratioP1;P1;durP2;ratioP2;P2;SDS_P1;SDS_P2;PMS_P1;PMS_P2;Temp;Humidity;BMP_temperature;BMP_pressure;BME280_temperature;BME280_humidity;BME280_pressure;Samples;Min_cycle;Max_cycle;Signal;HPM_P1;HPM_P2
2024/04/03 00:01:45;;;;;;;;;1.00;0.00;;;;;22.60;42.88;100308.09;4938450;28;45372;-73
2024/04/03 00:04:12;;;;;;;;;2.00;1.00;;;;;22.69;42.66;100322.03;4938713;28;45247;-73
2024/04/03 00:06:37;;;;;;;;;1.33;1.33;;;;;22.67;42.97;100316.09;4938931;28;45338;-73
2024/04/03 00:09:03;;;;;;;;;2.00;2.00;;;;;22.58;42.95;100304.84;4938404;28;46351;-73
2024/04/03 00:11:29;;;;;;;;;2.00;1.00;;;;;22.67;42.46;100316.91;4938677;28;45272;-73
2024/04/03 00:13:54;;;;;;;;;2.00;2.00;;;;;22.67;42.52;100313.44;4938696;28;45289;-73
2024/04/03 00:16:20;;;;;;;;;3.33;2.33;;;;;22.67;42.43;100314.25;4938170;28;45250;-73
2024/04/03 00:18:45;;;;;;;;;1.00;1.00;;;;;22.67;42.36;100313.44;4938538;28;46559;-73
2024/04/03 00:21:11;;;;;;;;;2.33;1.00;;;;;22.62;42.34;100311.38;4938545;28;45359;-73
2024/04/03 00:23:36;;;;;;;;;4.33;3.00;;;;;22.62;42.85;100300.78;4938478;28;45326;-73
2024/04/03 00:26:02;;;;;;;;;1.67;1.33;;;;;22.59;42.74;100296.69;4938577;28;45322;-73
2024/04/03 00:28:28;;;;;;;;;1.00;1.00;;;;;22.62;42.64;100309.56;4938278;28;46083;-73
2024/04/03 00:30:54;;;;;;;;;1.67;1.67;;;;;22.66;42.93;100306.50;4937938;28;45327;-73
2024/04/03 00:33:20;;;;;;;;;1.00;1.00;;;;;22.65;42.37;100300.38;4938425;28;45322;-73
2024/04/03 00:35:56;;;;;;;;;1.00;1.00;;;;;22.66;42.45;100301.19;4936906;28;45380;-73
2024/04/03 00:38:21;;;;;;;;;1.67;1.33;;;;;22.64;42.31;100298.72;4937739;28;46410;-74
2024/04/03 00:41:13;;;;;;;;;2.67;1.67;;;;;22.66;42.78;100293.25;4936874;28;45384;-73
2024/04/03 00:43:39;;;;;;;;;2.00;2.00;;;;;22.64;42.79;100296.09;4937971;28;45537;-74
2024/04/03 00:46:05;;;;;;;;;1.00;1.00;;;;;22.60;42.77;100285.06;4937863;28;45355;-73
2024/04/03 00:48:31;;;;;;;;;1.00;1.00;;;;;22.58;42.62;100276.50;4938015;28;46428;-73
2024/04/03 00:50:59;;;;;;;;;1.33;1.33;;;;;22.65;42.71;100281.81;4937953;28;45507;-73
2024/04/03 00:53:25;;;;;;;;;1.00;1.00;;;;;22.59;42.34;100266.69;4938224;28;45356;-73
2024/04/03 00:55:50;;;;;;;;;1.67;1.67;;;;;22.58;42.52;100257.94;4938087;28;45454;-74
2024/04/03 00:58:16;;;;;;;;;1.33;1.33;;;;;22.65;42.40;100267.75;4937507;28;47132;-73
2024/04/03 01:00:41;;;;;;;;;2.00;2.00;;;;;22.54;42.80;100247.91;4938072;28;45359;-74
2024/04/03 01:03:07;;;;;;;;;1.33;1.33;;;;;22.65;42.29;100257.13;4937891;28;45403;-73
2024/04/03 01:05:33;;;;;;;;;1.00;1.00;;;;;22.63;42.75;100254.69;4938031;28;45427;-74
2024/04/03 01:07:59;;;;;;;;;1.33;1.33;;;;;22.57;42.49;100244.88;4938024;28;46378;-74
2024/04/03 01:10:26;;;;;;;;;1.00;1.00;;;;;22.58;42.97;100242.03;4937426;28;45497;-73
2024/04/03 01:12:54;;;;;;;;;1.00;1.00;;;;;22.64;42.75;100248.34;4937783;28;45398;-73
2024/04/03 01:15:20;;;;;;;;;0.67;0.67;;;;;22.56;42.34;100224.69;4937752;28;45271;-74
2024/04/03 01:17:45;;;;;;;;;1.00;1.00;;;;;22.64;42.42;100235.09;4937601;28;46226;-73
2024/04/03 01:20:11;;;;;;;;;2.00;2.00;;;;;22.56;42.53;100222.84;4937778;28;45335;-74
2024/04/03 01:22:37;;;;;;;;;3.00;1.00;;;;;22.63;42.60;100226.34;4937743;28;45297;-74
2024/04/03 01:25:02;;;;;;;;;0.67;0.67;;;;;22.65;42.40;100220.00;4936275;28;45316;-73
2024/04/03 01:27:29;;;;;;;;;1.00;1.00;;;;;22.62;42.76;100215.94;4937166;28;47319;-74
2024/04/03 01:29:54;;;;;;;;;1.00;1.00;;;;;22.62;42.55;100211.44;4937706;28;45367;-73
2024/04/03 01:32:19;;;;;;;;;3.00;2.00;;;;;22.51;42.70;100191.63;4937663;28;45498;-73
2024/04/03 01:34:45;;;;;;;;;2.00;2.00;;;;;22.62;42.70;100203.50;4937594;28;45371;-74
2024/04/03 01:37:11;;;;;;;;;2.67;1.00;;;;;22.63;42.61;100206.97;4937231;28;46045;-74
2024/04/03 01:39:36;;;;;;;;;1.00;1.00;;;;;22.62;42.26;100202.66;4937205;28;45364;-73
2024/04/03 01:42:02;;;;;;;;;1.00;1.00;;;;;22.50;42.49;100181.22;4935993;28;45449;-73
2024/04/03 01:44:27;;;;;;;;;1.00;1.00;;;;;22.59;42.73;100185.31;4937472;28;45372;-73
2024/04/03 01:46:52;;;;;;;;;1.00;1.00;;;;;22.62;42.38;100178.81;4937415;28;45338;-73
2024/04/03 01:49:18;;;;;;;;;1.00;1.00;;;;;22.62;42.42;100184.09;4937233;28;45516;-73
2024/04/03 01:51:43;;;;;;;;;2.67;1.33;;;;;22.62;42.76;100176.16;4937344;28;45394;-73
2024/04/03 01:54:08;;;;;;;;;1.00;1.00;;;;;22.61;42.37;100175.34;4937248;28;45358;-73
2024/04/03 01:56:34;;;;;;;;;3.00;1.00;;;;;22.60;42.61;100172.88;4936895;28;45371;-73
2024/04/03 01:58:59;;;;;;;;;1.00;1.00;;;;;22.53;42.40;100159.63;4937335;28;45429;-73
2024/04/03 02:01:24;;;;;;;;;2.67;0.67;;;;;22.60;42.33;100165.75;4937388;28;45330;-73
2024/04/03 02:03:50;;;;;;;;;2.00;1.00;;;;;22.57;42.30;100160.03;4936998;28;45412;-73
2024/04/03 02:06:15;;;;;;;;;2.00;2.00;;;;;22.58;42.34;100162.50;4937053;28;47148;-73
2024/04/03 02:08:40;;;;;;;;;1.00;1.00;;;;;22.59;42.25;100158.00;4937105;28;45291;-74
2024/04/03 02:11:05;;;;;;;;;1.33;0.33;;;;;22.60;42.93;100162.28;4936867;28;45396;-73
2024/04/03 02:13:31;;;;;;;;;1.00;1.00;;;;;22.56;42.82;100153.91;4937252;28;45447;-73
2024/04/03 02:15:56;;;;;;;;;0.00;0.00;;;;;22.58;42.26;100159.03;4936941;28;45429;-74
2024/04/03 02:18:22;;;;;;;;;2.00;2.00;;;;;22.60;42.87;100156.97;4937032;28;45288;-73
2024/04/03 02:20:48;;;;;;;;;0.33;0.33;;;;;22.59;42.87;100150.84;4937229;28;45271;-73
2024/04/03 02:23:13;;;;;;;;;2.67;1.00;;;;;22.59;42.80;100153.50;4939675;28;45532;-74
2024/04/03 02:25:40;;;;;;;;;1.00;1.00;;;;;22.59;42.74;100148.22;4939679;28;46286;-73
2024/04/03 02:28:05;;;;;;;;;1.00;1.00;;;;;22.58;42.36;100146.59;4940203;28;45299;-73
2024/04/03 02:30:30;;;;;;;;;3.00;2.00;;;;;22.58;42.89;100154.53;4940184;28;45295;-73
2024/04/03 02:32:56;;;;;;;;;0.33;0.33;;;;;22.58;42.17;100151.06;4940290;28;45518;-73
2024/04/03 02:35:21;;;;;;;;;0.00;0.00;;;;;22.58;42.67;100143.13;4940064;28;46318;-73
2024/04/03 02:37:46;;;;;;;;;2.00;1.00;;;;;22.57;42.49;100147.59;4939673;28;45387;-73
2024/04/03 02:40:12;;;;;;;;;1.00;1.00;;;;;22.49;42.18;100127.41;4939714;28;45519;-73
2024/04/03 02:42:37;;;;;;;;;1.33;1.33;;;;;22.48;42.63;100136.34;4940077;28;45402;-73
2024/04/03 02:45:03;;;;;;;;;0.67;0.67;;;;;22.49;42.46;100130.03;4939703;28;45320;-73
2024/04/03 02:47:30;;;;;;;;;1.67;1.67;;;;;22.57;42.80;100138.81;4939843;28;45458;-73
2024/04/03 02:49:55;;;;;;;;;1.00;1.00;;;;;22.58;42.31;100140.47;4939874;28;45359;-73
2024/04/03 02:52:21;;;;;;;;;2.00;1.00;;;;;22.57;42.64;100134.34;4939833;28;45418;-73
2024/04/03 02:54:46;;;;;;;;;1.33;1.33;;;;;22.53;42.23;100122.53;4939442;28;46338;-73
2024/04/03 02:57:11;;;;;;;;;1.00;1.00;;;;;22.58;42.71;100132.50;4939798;28;45264;-73
2024/04/03 02:59:37;;;;;;;;;2.00;0.33;;;;;22.56;42.73;100119.44;4939892;28;45233;-73
2024/04/03 03:02:03;;;;;;;;;1.00;1.00;;;;;22.57;42.88;100118.44;4939770;28;45368;-73
2024/04/03 03:04:28;;;;;;;;;1.00;1.00;;;;;22.58;42.44;100113.97;4939464;28;46009;-73
2024/04/03 03:06:53;;;;;;;;;0.33;0.33;;;;;22.58;42.78;100113.97;4939559;28;45414;-73
2024/04/03 03:09:21;;;;;;;;;1.67;1.00;;;;;22.58;42.74;100101.53;4939376;28;45330;-73
2024/04/03 03:11:47;;;;;;;;;2.00;0.00;;;;;22.57;42.41;100113.13;4939673;28;45405;-73
2024/04/03 03:14:13;;;;;;;;;0.00;0.00;;;;;22.58;42.24;100108.66;4939229;28;47283;-73
2024/04/03 03:16:38;;;;;;;;;1.67;1.00;;;;;22.57;42.82;100109.66;4939400;28;45410;-73
2024/04/03 03:19:03;;;;;;;;;0.67;0.00;;;;;22.53;42.35;100096.00;4939479;28;45347;-73
2024/04/03 03:21:29;;;;;;;;;1.00;1.00;;;;;22.56;42.56;100098.22;4938265;28;45535;-73
2024/04/03 03:23:54;;;;;;;;;0.00;0.00;;;;;22.56;42.87;100100.09;4938884;28;45382;-73
2024/04/03 03:26:19;;;;;;;;;1.33;1.33;;;;;22.46;42.28;100073.94;4938034;28;45411;-73
2024/04/03 03:28:45;;;;;;;;;1.00;1.00;;;;;22.56;42.87;100095.59;4939449;28;45550;-73
2024/04/03 03:31:12;;;;;;;;;1.00;1.00;;;;;22.52;42.82;100086.41;4938173;28;45704;-73
2024/04/03 03:33:38;;;;;;;;;1.00;1.00;;;;;22.57;42.83;100091.94;4939041;28;46440;-73
2024/04/03 03:36:04;;;;;;;;;2.00;0.00;;;;;22.57;42.19;100088.44;4938859;28;45378;-73
2024/04/03 03:38:29;;;;;;;;;0.67;0.67;;;;;22.57;42.53;100091.94;4938652;28;45378;-73
2024/04/03 03:40:54;;;;;;;;;1.00;0.00;;;;;22.57;42.57;100091.94;4939341;28;45466;-72
2024/04/03 03:43:21;;;;;;;;;0.67;0.67;;;;;22.52;42.54;100075.81;4938883;28;47295;-73
2024/04/03 03:45:50;;;;;;;;;2.00;0.67;;;;;22.57;42.52;100091.09;4939081;28;45459;-73
2024/04/03 03:48:16;;;;;;;;;1.00;1.00;;;;;22.56;42.79;100092.13;4938957;28;45228;-73
2024/04/03 03:53:30;;;;;;;;;0.00;0.00;;;;;22.46;42.44;100061.53;4938579;28;45900;-73
2024/04/03 03:55:56;;;;;;;;;1.33;1.33;;;;;22.56;42.50;100078.88;4938758;28;45382;-73
2024/04/03 03:58:22;;;;;;;;;0.00;0.00;;;;;22.56;42.26;100076.22;4938966;28;45424;-73
2024/04/03 04:00:47;;;;;;;;;3.00;1.67;;;;;22.49;42.57;100066.44;4939165;28;45968;-73
2024/04/03 04:03:13;;;;;;;;;1.00;1.00;;;;;22.51;42.39;100061.72;4938566;28;46575;-73
2024/04/03 04:05:38;;;;;;;;;0.67;0.67;;;;;22.56;42.38;100078.88;4938696;28;45402;-73
2024/04/03 04:08:04;;;;;;;;;0.00;0.00;;;;;22.51;42.52;100069.69;4938553;28;45428;-72
2024/04/03 04:10:29;;;;;;;;;0.33;0.33;;;;;22.55;42.83;100070.09;4938781;28;45410;-72
2024/04/03 04:12:55;;;;;;;;;0.67;0.67;;;;;22.55;42.24;100071.94;4938553;28;45398;-73
2024/04/03 04:15:22;;;;;;;;;0.00;0.00;;;;;22.55;42.74;100072.75;4938466;28;45323;-73
2024/04/03 04:17:50;;;;;;;;;1.33;1.33;;;;;22.48;42.32;100056.03;4938686;28;45294;-73
2024/04/03 04:20:15;;;;;;;;;1.00;1.00;;;;;22.49;42.48;100063.78;4938493;28;45538;-73
2024/04/03 04:22:44;;;;;;;;;0.33;0.33;;;;;22.53;42.79;100074.81;4938005;28;46144;-73
2024/04/03 04:25:10;;;;;;;;;1.33;0.00;;;;;22.56;42.89;100062.97;4938474;28;45446;-73
2024/04/03 04:27:35;;;;;;;;;0.67;0.00;;;;;22.56;42.87;100070.94;4938444;28;45553;-73
2024/04/03 04:30:00;;;;;;;;;0.00;0.00;;;;;22.56;42.25;100070.94;4937256;28;45316;-73
2024/04/03 04:32:26;;;;;;;;;0.33;0.33;;;;;22.51;42.47;100066.22;4938316;28;45262;-73
2024/04/03 04:34:53;;;;;;;;;1.00;1.00;;;;;22.56;42.76;100068.28;4938339;28;45169;-73
2024/04/03 04:37:19;;;;;;;;;0.67;0.67;;;;;22.56;42.64;100073.59;4937651;28;45339;-73
2024/04/03 04:39:44;;;;;;;;;0.33;0.33;;;;;22.53;42.73;100069.50;4938009;28;45456;-73
2024/04/03 04:42:10;;;;;;;;;1.33;1.00;;;;;22.55;42.84;100070.09;4937899;28;46008;-73
2024/04/03 04:44:36;;;;;;;;;0.00;0.00;;;;;22.55;42.61;100069.28;4937436;28;45296;-73
2024/04/03 04:47:01;;;;;;;;;0.00;0.00;;;;;22.54;42.82;100073.75;4938216;28;45623;-73
2024/04/03 04:49:27;;;;;;;;;0.00;0.00;;;;;22.54;42.13;100067.63;4938104;28;45482;-73
2024/04/03 04:51:52;;;;;;;;;1.00;1.00;;;;;22.54;42.69;100071.13;4937667;28;45493;-73
2024/04/03 04:54:18;;;;;;;;;1.00;1.00;;;;;22.48;42.16;100064.00;4937834;28;45355;-73
2024/04/03 04:56:44;;;;;;;;;0.00;0.00;;;;;22.53;42.45;100072.16;4938240;28;45425;-73
2024/04/03 04:59:10;;;;;;;;;0.00;0.00;;;;;22.48;42.65;100056.81;4938087;28;45463;-73
2024/04/03 05:01:38;;;;;;;;;0.33;0.33;;;;;22.54;42.77;100068.47;4937687;28;45425;-73
2024/04/03 05:04:04;;;;;;;;;0.00;0.00;;;;;22.54;42.41;100076.41;4937744;28;45521;-73
2024/04/03 05:06:30;;;;;;;;;0.67;0.67;;;;;22.53;42.40;100074.81;4937552;28;45339;-73
2024/04/03 05:08:59;;;;;;;;;0.00;0.00;;;;;22.45;42.64;100061.75;4937913;28;45518;-73
2024/04/03 05:11:25;;;;;;;;;1.33;0.00;;;;;22.47;42.56;100070.28;4937713;28;46893;-73
2024/04/03 05:13:50;;;;;;;;;1.00;1.00;;;;;22.43;42.49;100059.28;4937509;28;45407;-73
2024/04/03 05:16:20;;;;;;;;;0.00;0.00;;;;;22.51;42.51;100072.34;4937711;28;45422;-73
2024/04/03 05:18:45;;;;;;;;;0.00;0.00;;;;;22.51;42.82;100075.00;4937778;28;45304;-73
2024/04/03 05:21:11;;;;;;;;;1.33;1.00;;;;;22.52;42.73;100084.59;4937167;28;46009;-73
2024/04/03 05:23:37;;;;;;;;;0.67;0.67;;;;;22.51;42.43;100085.59;4937508;28;45451;-73
2024/04/03 05:26:05;;;;;;;;;0.33;0.33;;;;;22.47;42.55;100079.06;4937220;28;45377;-73
2024/04/03 05:28:32;;;;;;;;;0.67;0.00;;;;;22.53;42.70;100085.41;4937674;28;45427;-73
2024/04/03 05:31:09;;;;;;;;;0.00;0.00;;;;;22.53;42.31;100093.34;4937340;28;46242;-73
2024/04/03 05:33:34;;;;;;;;;1.33;0.33;;;;;22.54;42.65;100094.16;4937152;28;45330;-73
2024/04/03 05:36:01;;;;;;;;;0.00;0.00;;;;;22.49;42.72;100095.59;4936791;28;45413;-74
2024/04/03 05:38:27;;;;;;;;;0.00;0.00;;;;;22.51;42.23;100088.25;4937219;28;45643;-76
2024/04/03 05:40:53;;;;;;;;;0.33;0.33;;;;;22.53;42.37;100090.72;4935955;28;45464;-75
2024/04/03 05:43:19;;;;;;;;;0.00;0.00;;;;;22.50;42.41;100085.81;4937021;28;45502;-74
2024/04/03 05:45:45;;;;;;;;;0.00;0.00;;;;;22.54;42.61;100088.84;4937367;28;45331;-75
2024/04/03 05:48:12;;;;;;;;;0.33;0.33;;;;;22.49;42.94;100078.84;4937210;28;45555;-74
2024/04/03 05:50:38;;;;;;;;;0.00;0.00;;;;;22.55;43.30;100091.31;4936009;28;45565;-74
2024/04/03 05:53:03;;;;;;;;;0.00;0.00;;;;;22.56;43.13;100089.50;4936496;28;45513;-79
2024/04/03 05:55:29;;;;;;;;;0.33;0.33;;;;;22.57;43.22;100088.44;4935785;28;46050;-78
2024/04/03 05:57:54;;;;;;;;;0.67;0.00;;;;;22.57;42.83;100091.94;4939391;28;45567;-76
2024/04/03 06:00:20;;;;;;;;;0.00;0.00;;;;;22.58;43.28;100092.75;4939991;28;46608;-75
2024/04/03 06:02:45;;;;;;;;;0.67;0.67;;;;;22.54;43.13;100087.03;4940086;28;45430;-75
2024/04/03 06:05:11;;;;;;;;;0.00;0.00;;;;;22.52;43.32;100089.88;4940474;28;45421;-76
2024/04/03 06:07:36;;;;;;;;;0.00;0.00;;;;;22.51;42.86;100087.41;4940639;28;45409;-75
2024/04/03 06:10:03;;;;;;;;;2.00;1.00;;;;;22.51;43.01;100082.94;4955298;28;45911;-74
2024/04/03 06:12:29;;;;;;;;;0.00;0.00;;;;;22.54;42.85;100089.66;4940095;28;45403;-74
2024/04/03 06:14:55;;;;;;;;;2.00;0.00;;;;;22.59;43.46;100089.06;4935823;28;45484;-75
2024/04/03 06:17:20;;;;;;;;;0.00;0.00;;;;;22.50;42.99;100077.84;4939435;28;45366;-74
2024/04/03 06:19:45;;;;;;;;;0.67;0.00;;;;;22.55;43.45;100087.84;4939846;28;45306;-74
2024/04/03 06:22:11;;;;;;;;;1.00;0.00;;;;;22.60;42.91;100099.47;4940114;28;45370;-74
2024/04/03 06:24:36;;;;;;;;;1.00;0.00;;;;;22.55;43.19;100088.66;4939731;28;45422;-74
2024/04/03 06:27:01;;;;;;;;;0.00;0.00;;;;;22.61;43.37;100102.94;4939725;28;45473;-74
2024/04/03 06:29:27;;;;;;;;;1.00;0.00;;;;;22.49;42.93;100084.16;4939856;28;46963;-74
2024/04/03 06:31:52;;;;;;;;;0.00;0.00;;;;;22.46;43.23;100087.22;4939813;28;45307;-74
2024/04/03 06:34:18;;;;;;;;;1.00;0.00;;;;;22.58;43.36;100109.47;4940108;28;45401;-74
2024/04/03 06:36:44;;;;;;;;;1.67;0.67;;;;;22.61;43.13;100109.06;4939889;28;45384;-75
2024/04/03 06:39:09;;;;;;;;;0.00;0.00;;;;;22.55;42.97;100112.53;4930299;28;45388;-75
2024/04/03 06:41:34;;;;;;;;;1.00;1.00;;;;;22.60;43.24;100117.22;4939499;28;45420;-74
2024/04/03 06:44:00;;;;;;;;;0.00;0.00;;;;;22.47;43.00;100092.31;4939647;28;45748;-75
2024/04/03 06:46:25;;;;;;;;;1.00;1.00;;;;;22.53;43.32;100114.56;4939507;28;45407;-74
2024/04/03 06:48:51;;;;;;;;;1.00;0.67;;;;;22.53;43.29;100109.25;4939315;28;46598;-75
2024/04/03 06:51:16;;;;;;;;;0.00;0.00;;;;;22.59;43.20;100131.47;4939754;28;45366;-76
2024/04/03 06:53:42;;;;;;;;;0.00;0.00;;;;;22.60;43.35;100133.13;4938430;28;45346;-75
2024/04/03 06:56:08;;;;;;;;;0.00;0.00;;;;;22.60;42.77;100123.34;4939743;28;45471;-75
2024/04/03 06:58:44;;;;;;;;;0.00;0.00;;;;;22.60;42.77;100126.00;4939625;28;45457;-74
2024/04/03 07:01:13;;;;;;;;;0.00;0.00;;;;;22.60;42.91;100115.38;4938788;28;45223;-75
2024/04/03 07:03:39;;;;;;;;;0.00;0.00;;;;;22.56;43.45;100116.78;4939357;28;45351;-74
2024/04/03 07:06:08;;;;;;;;;1.00;1.00;;;;;22.60;43.17;100127.81;4939414;28;45505;-75
2024/04/03 07:08:34;;;;;;;;;0.00;0.00;;;;;22.52;42.91;100113.75;4938882;28;46257;-74
2024/04/03 07:11:01;;;;;;;;;0.00;0.00;;;;;22.60;42.69;100118.03;4939133;28;45340;-74
2024/04/03 07:13:27;;;;;;;;;0.00;0.00;;;;;22.52;42.89;100113.75;4939597;28;45329;-75
2024/04/03 07:15:52;;;;;;;;;1.00;0.00;;;;;22.58;43.20;100124.56;4937511;28;45396;-75
2024/04/03 07:18:18;;;;;;;;;0.00;0.00;;;;;22.62;42.79;100121.31;4938944;28;45535;-75
2024/04/03 07:20:53;;;;;;;;;0.00;0.00;;;;;22.53;43.11;100109.25;4939472;28;45293;-75
2024/04/03 07:23:18;;;;;;;;;0.00;0.00;;;;;22.59;42.93;100110.28;4939211;28;45426;-75
2024/04/03 07:25:44;;;;;;;;;0.00;0.00;;;;;22.63;43.25;100119.47;4939133;28;45462;-75
2024/04/03 07:28:11;;;;;;;;;0.67;0.00;;;;;22.58;42.72;100117.44;4938905;28;46931;-74
2024/04/03 07:30:36;;;;;;;;;0.00;0.00;;;;;22.62;42.67;100123.94;4938125;28;45736;-74
2024/04/03 07:33:04;;;;;;;;;0.00;0.00;;;;;22.65;43.02;100132.50;4939245;28;45531;-75
2024/04/03 07:35:29;;;;;;;;;3.00;0.00;;;;;22.65;42.71;100135.16;4938760;28;45425;-74
2024/04/03 07:37:54;;;;;;;;;0.33;0.33;;;;;22.63;43.27;100133.53;4938521;28;46192;-75
2024/04/03 07:40:20;;;;;;;;;0.00;0.00;;;;;22.63;43.21;100130.06;4938666;28;45304;-74
2024/04/03 07:42:47;;;;;;;;;1.00;0.00;;;;;22.63;43.01;100133.53;4938560;28;45390;-75
2024/04/03 07:45:12;;;;;;;;;0.00;0.00;;;;;22.52;43.06;100115.56;4938735;28;45322;-75
2024/04/03 07:47:37;;;;;;;;;0.00;0.00;;;;;22.46;42.87;100111.06;4938703;28;45582;-75
2024/04/03 07:50:08;;;;;;;;;0.00;0.00;;;;;22.66;42.96;100139.47;4939079;28;45575;-76
2024/04/03 07:52:39;;;;;;;;;0.00;0.00;;;;;22.61;42.86;100138.22;4953814;28;45405;-75
2024/04/03 07:55:05;;;;;;;;;1.00;0.00;;;;;22.56;42.98;100129.25;4938732;28;45327;-75
2024/04/03 07:57:31;;;;;;;;;0.00;0.00;;;;;22.67;42.76;100155.16;4938603;28;47034;-76
2024/04/03 07:59:56;;;;;;;;;1.67;0.00;;;;;22.57;42.62;100128.22;4938431;28;45445;-75
2024/04/03 08:02:21;;;;;;;;;3.00;0.00;;;;;22.65;43.29;100146.59;4938535;28;45618;-75
2024/04/03 08:04:47;;;;;;;;;0.00;0.00;;;;;22.67;42.98;100144.56;4938712;28;45382;-75
2024/04/03 08:07:12;;;;;;;;;1.00;0.00;;;;;22.67;42.73;100151.69;4938625;28;45372;-74
2024/04/03 08:09:37;;;;;;;;;0.00;0.00;;;;;22.40;42.70;100107.41;4953351;28;45394;-75
2024/04/03 08:12:03;;;;;;;;;0.00;0.00;;;;;22.60;43.03;100133.94;4938699;28;45294;-75
2024/04/03 08:14:28;;;;;;;;;2.00;0.00;;;;;22.68;42.64;100146.19;4938094;28;45394;-75
2024/04/03 08:16:57;;;;;;;;;1.00;0.00;;;;;22.61;42.76;100135.56;4938177;28;46036;-75
2024/04/03 08:19:23;;;;;;;;;0.00;0.00;;;;;22.69;43.09;100154.97;4937448;28;45214;-75
2024/04/03 08:21:48;;;;;;;;;0.00;0.00;;;;;22.61;42.69;100148.81;4938328;28;45513;-75
2024/04/03 08:24:14;;;;;;;;;0.00;0.00;;;;;22.70;43.24;100161.91;4938072;28;45383;-75
2024/04/03 08:26:40;;;;;;;;;0.00;0.00;;;;;22.70;43.32;100165.41;4936854;28;47214;-75
2024/04/03 08:29:05;;;;;;;;;1.00;1.00;;;;;22.71;42.56;100160.91;4937762;28;45441;-75
2024/04/03 08:31:31;;;;;;;;;0.00;0.00;;;;;22.68;42.66;100150.69;4938292;28;45469;-75
2024/04/03 08:33:58;;;;;;;;;0.00;0.00;;;;;22.68;42.74;100166.59;4938288;28;45374;-75
2024/04/03 08:36:24;;;;;;;;;1.00;0.00;;;;;22.63;42.84;100159.25;4937828;28;47106;-75
2024/04/03 08:38:49;;;;;;;;;0.33;0.33;;;;;22.69;42.87;100163.72;4937637;28;45426;-74
2024/04/03 08:41:15;;;;;;;;;0.00;0.00;;;;;22.72;42.94;100178.44;4938045;28;45607;-75
2024/04/03 08:43:40;;;;;;;;;1.00;1.00;;;;;22.71;42.71;100177.66;4937366;28;45275;-76
2024/04/03 08:46:07;;;;;;;;;0.00;0.00;;;;;22.35;42.65;100123.88;4937971;28;45389;-75
2024/04/03 08:48:34;;;;;;;;;1.67;0.67;;;;;22.67;43.07;100163.13;4937990;28;45402;-75
2024/04/03 08:51:00;;;;;;;;;0.00;0.00;;;;;22.71;42.72;100182.13;4937756;28;45347;-74
2024/04/03 08:53:25;;;;;;;;;0.00;0.00;;;;;22.71;43.04;100175.00;4937788;28;45557;-75
2024/04/03 08:55:54;;;;;;;;;0.00;0.00;;;;;22.71;42.63;100176.81;4937769;28;46168;-75
2024/04/03 08:58:20;;;;;;;;;0.00;0.00;;;;;22.72;42.70;100176.63;4937336;28;45417;-75
2024/04/03 09:00:47;;;;;;;;;0.33;0.33;;;;;22.73;43.22;100177.44;4937719;28;45491;-74
2024/04/03 09:03:14;;;;;;;;;2.00;0.00;;;;;22.73;42.63;100180.09;4937588;28;45289;-74
2024/04/03 09:05:40;;;;;;;;;0.00;0.00;;;;;22.62;42.71;100163.72;4937237;28;45385;-75
2024/04/03 09:08:08;;;;;;;;;1.00;0.00;;;;;22.72;42.95;100181.91;4937609;28;45411;-75
2024/04/03 09:10:47;;;;;;;;;0.00;0.00;;;;;22.67;42.96;100183.50;4937522;28;45346;-74
2024/04/03 09:13:13;;;;;;;;;0.00;0.00;;;;;22.68;42.98;100182.50;4936896;28;45266;-75
2024/04/03 09:15:38;;;;;;;;;0.00;0.00;;;;;22.68;42.53;100190.44;4937530;28;46163;-75
2024/04/03 09:18:06;;;;;;;;;0.00;0.00;;;;;22.75;42.93;100193.97;4937484;28;45385;-75
2024/04/03 09:20:33;;;;;;;;;0.00;0.00;;;;;22.74;42.82;100208.25;4937792;28;45419;-75
2024/04/03 09:22:58;;;;;;;;;0.00;0.00;;;;;22.72;42.85;100192.53;4937424;28;45603;-76
2024/04/03 09:25:31;;;;;;;;;0.00;0.00;;;;;22.60;42.56;100180.84;4937302;28;45977;-75
2024/04/03 09:28:04;;;;;;;;;2.00;1.00;;;;;22.76;42.76;100200.91;4936970;28;45443;-75
2024/04/03 09:30:30;;;;;;;;;0.00;0.00;;;;;22.70;42.72;100199.03;4937046;28;45317;-75
2024/04/03 09:32:57;;;;;;;;;1.00;0.00;;;;;22.77;42.98;100205.19;4937147;28;45398;-74
2024/04/03 09:35:38;;;;;;;;;0.00;0.00;;;;;22.78;42.92;100203.34;4936944;28;46539;-75
2024/04/03 09:38:04;;;;;;;;;0.00;0.00;;;;;22.74;42.80;100201.09;4929513;28;45288;-75
2024/04/03 09:40:31;;;;;;;;;0.00;0.00;;;;;22.78;43.15;100204.16;4935428;28;46167;-75
2024/04/03 09:43:02;;;;;;;;;0.00;0.00;;;;;22.74;43.06;100198.44;4936072;28;45360;-75
2024/04/03 09:45:30;;;;;;;;;0.00;0.00;;;;;22.79;43.18;100205.00;4937255;28;46364;-75
2024/04/03 09:48:14;;;;;;;;;0.00;0.00;;;;;22.78;42.59;100206.81;4937143;28;45331;-76
2024/04/03 09:50:43;;;;;;;;;0.00;0.00;;;;;22.71;43.16;100198.03;4937379;28;45272;-75
2024/04/03 09:53:25;;;;;;;;;2.00;0.00;;;;;22.68;42.73;100196.56;4936900;28;45335;-75
2024/04/03 09:55:52;;;;;;;;;0.00;0.00;;;;;22.72;42.94;100199.66;4935276;28;47267;-75
2024/04/03 09:58:19;;;;;;;;;1.00;0.00;;;;;22.73;42.58;100204.78;4936946;28;45416;-75
2024/04/03 10:00:52;;;;;;;;;0.00;0.00;;;;;22.79;42.57;100215.59;4937348;28;45307;-75
2024/04/03 10:03:28;;;;;;;;;0.00;0.00;;;;;22.80;43.12;100206.59;4936992;28;45419;-76
2024/04/03 10:06:00;;;;;;;;;0.00;0.00;;;;;22.71;43.19;100193.56;4936686;28;45342;-75
2024/04/03 10:08:32;;;;;;;;;0.00;0.00;;;;;22.84;43.09;100206.03;4936929;28;45441;-75
2024/04/03 10:10:58;;;;;;;;;2.67;1.00;;;;;22.88;42.60;100218.88;4936435;28;45308;-75
2024/04/03 10:13:27;;;;;;;;;1.33;0.00;;;;;22.87;42.53;100209.28;4935653;28;45426;-75
2024/04/03 10:16:06;;;;;;;;;0.00;0.00;;;;;22.81;42.44;100195.81;4936491;28;47260;-75
2024/04/03 10:18:36;;;;;;;;;1.00;1.00;;;;;22.91;42.63;100243.16;4936696;28;45388;-75
2024/04/03 10:21:02;;;;;;;;;0.00;0.00;;;;;22.85;42.48;100238.66;4936720;28;45329;-75
2024/04/03 10:23:27;;;;;;;;;0.00;0.00;;;;;22.91;42.42;100266.22;4936678;28;45423;-75
2024/04/03 10:25:53;;;;;;;;;0.00;0.00;;;;;22.84;42.46;100252.94;4936254;28;46104;-74
2024/04/03 10:28:18;;;;;;;;;0.00;0.00;;;;;22.63;42.62;100231.66;4936598;28;45325;-75
2024/04/03 10:30:46;;;;;;;;;1.67;0.00;;;;;22.85;42.85;100259.88;4936717;28;45291;-74
2024/04/03 10:33:12;;;;;;;;;0.00;0.00;;;;;22.82;42.94;100252.34;4936590;28;45406;-75
2024/04/03 10:35:37;;;;;;;;;0.00;0.00;;;;;22.83;42.87;100256.59;4936274;28;46187;-75
2024/04/03 10:38:04;;;;;;;;;0.00;0.00;;;;;22.90;43.19;100272.56;4927904;28;45424;-75
2024/04/03 10:40:30;;;;;;;;;0.00;0.00;;;;;22.93;42.62;100270.31;4934683;28;45789;-75
2024/04/03 10:42:55;;;;;;;;;0.00;0.00;;;;;22.91;42.49;100267.03;4937669;28;45627;-74
2024/04/03 10:45:21;;;;;;;;;0.00;0.00;;;;;22.89;42.42;100260.31;4938581;28;47147;-74
2024/04/03 10:47:49;;;;;;;;;0.67;0.67;;;;;22.95;42.56;100270.13;4938283;28;45302;-75
2024/04/03 10:50:16;;;;;;;;;0.33;0.00;;;;;23.04;42.48;100287.47;4939995;28;45394;-73
2024/04/03 10:52:43;;;;;;;;;2.33;0.00;;;;;23.06;42.88;100285.44;4938996;28;45464;-75
2024/04/03 10:55:08;;;;;;;;;0.00;0.00;;;;;22.99;42.56;100275.81;4938769;28;47012;-76
2024/04/03 10:57:34;;;;;;;;;0.00;0.00;;;;;23.12;42.33;100297.09;4934589;28;45335;-75
2024/04/03 10:59:59;;;;;;;;;1.00;0.00;;;;;23.01;42.37;100279.09;4933878;28;45479;-75
2024/04/03 11:02:28;;;;;;;;;0.00;0.00;;;;;22.94;42.39;100269.31;4934544;28;45394;-75
2024/04/03 11:04:54;;;;;;;;;0.33;0.00;;;;;23.12;42.86;100290.97;4937320;28;45632;-75
2024/04/03 11:07:19;;;;;;;;;0.00;0.00;;;;;23.03;42.97;100291.13;4936766;28;45449;-73
2024/04/03 11:09:45;;;;;;;;;0.00;0.00;;;;;23.20;43.01;100301.38;4938734;28;45419;-74
2024/04/03 11:12:11;;;;;;;;;0.67;0.00;;;;;23.22;42.67;100304.66;4938747;28;45411;-75
2024/04/03 11:14:36;;;;;;;;;0.33;0.33;;;;;23.22;42.90;100311.78;4939150;28;45247;-75
2024/04/03 11:17:07;;;;;;;;;1.00;0.00;;;;;23.25;42.68;100316.72;4939226;28;45405;-75
2024/04/03 11:19:36;;;;;;;;;0.33;0.00;;;;;23.15;42.90;100299.34;4939547;28;45297;-76
2024/04/03 11:22:02;;;;;;;;;2.67;1.00;;;;;23.28;43.10;100326.94;4939103;28;45505;-74
2024/04/03 11:24:27;;;;;;;;;0.00;0.00;;;;;23.28;43.26;100330.41;4953978;28;46090;-76